createdAt,value
2023-02-11T00:00:59.225Z,37.07
2023-02-11T00:03:26.779Z,30.73
2023-02-11T00:06:06.377Z,37.13
2023-02-11T00:08:33.146Z,33.10
2023-02-11T00:10:59.997Z,30.07
2023-02-11T00:13:26.904Z,31.23
2023-02-11T00:15:55.043Z,41.03
2023-02-11T00:18:22.185Z,35.07
2023-02-11T00:20:49.402Z,31.30
2023-02-11T00:23:16.178Z,36.70
2023-02-11T00:25:45.580Z,35.80
2023-02-11T00:28:12.860Z,35.87
2023-02-11T00:30:40.165Z,45.10
2023-02-11T00:33:07.440Z,34.67
2023-02-11T00:35:36.762Z,36.43
2023-02-11T00:38:03.568Z,35.27
2023-02-11T00:40:30.522Z,40.83
2023-02-11T00:42:57.380Z,33.50
2023-02-11T00:45:24.418Z,39.40
2023-02-11T00:47:51.413Z,38.10
2023-02-11T00:50:18.432Z,38.50
2023-02-11T00:52:45.431Z,34.47
2023-02-11T00:55:12.439Z,40.50
2023-02-11T00:57:39.350Z,40.13
2023-02-11T01:00:07.686Z,40.13
2023-02-11T01:02:35.110Z,43.97
2023-02-11T01:05:02.235Z,37.07
2023-02-11T01:07:29.728Z,41.93
2023-02-11T01:09:57.217Z,39.50
2023-02-11T01:12:24.622Z,35.43
2023-02-11T01:14:51.727Z,41.23
2023-02-11T01:17:18.641Z,36.30
2023-02-11T01:19:45.642Z,32.23
2023-02-11T01:22:12.658Z,37.73
2023-02-11T01:24:39.713Z,35.50
2023-02-11T01:27:06.491Z,38.63
2023-02-11T01:29:33.593Z,45.87
2023-02-11T01:32:01.242Z,36.60
2023-02-11T01:34:28.563Z,36.37
2023-02-11T01:36:59.258Z,34.27
2023-02-11T01:39:27.075Z,37.23
2023-02-11T01:41:55.132Z,43.27
2023-02-11T01:44:38.070Z,39.40
2023-02-11T01:47:06.695Z,46.90
2023-02-11T01:49:58.255Z,43.67
2023-02-11T01:52:39.632Z,42.10
2023-02-11T01:55:29.745Z,44.23
2023-02-11T01:58:01.300Z,39.50
2023-02-11T02:00:34.068Z,37.40
2023-02-11T02:03:09.235Z,39.63
2023-02-11T02:05:49.587Z,39.43
2023-02-11T02:08:33.951Z,35.20
2023-02-11T02:11:01.292Z,39.73
2023-02-11T02:13:30.710Z,33.63
2023-02-11T02:16:01.096Z,36.93
2023-02-11T02:18:36.207Z,30.57
2023-02-11T02:21:03.128Z,37.10
2023-02-11T02:23:41.138Z,35.07
2023-02-11T02:26:53.122Z,33.63
2023-02-11T02:29:38.435Z,40.07
2023-02-11T02:32:11.201Z,33.37
2023-02-11T02:35:09.692Z,38.80
2023-02-11T02:37:51.837Z,35.80
2023-02-11T02:40:44.327Z,35.70
2023-02-11T02:43:12.075Z,34.63
2023-02-11T02:45:38.804Z,41.17
2023-02-11T02:48:07.207Z,33.87
2023-02-11T02:50:37.030Z,37.80
2023-02-11T02:53:26.563Z,32.40
2023-02-11T02:56:14.262Z,31.90
2023-02-11T02:58:56.577Z,35.23
2023-02-11T03:01:42.572Z,36.40
2023-02-11T03:04:25.500Z,40.40
2023-02-11T03:07:03.748Z,45.37
2023-02-11T03:09:42.669Z,44.93
2023-02-11T03:12:12.511Z,37.73
2023-02-11T03:14:41.028Z,36.73
2023-02-11T03:17:10.576Z,41.70
2023-02-11T03:19:43.945Z,38.70
2023-02-11T03:22:37.651Z,40.73
2023-02-11T03:25:05.569Z,37.00
2023-02-11T03:27:47.120Z,46.90
2023-02-11T03:30:25.154Z,37.20
2023-02-11T03:32:57.617Z,39.70
2023-02-11T03:35:39.797Z,42.70
2023-02-11T03:38:14.026Z,34.60
2023-02-11T03:40:43.828Z,31.87
2023-02-11T03:43:19.710Z,36.10
2023-02-11T03:45:49.673Z,35.27
2023-02-11T03:48:47.299Z,41.13
2023-02-11T03:51:16.426Z,45.83
2023-02-11T03:53:46.994Z,36.33
2023-02-11T03:56:21.906Z,31.27
2023-02-11T03:58:49.689Z,31.70
2023-02-11T04:01:16.999Z,42.00
2023-02-11T04:03:44.072Z,36.23
2023-02-11T04:06:11.076Z,38.20
2023-02-11T04:08:38.117Z,37.80
2023-02-11T04:11:04.847Z,32.40
2023-02-11T04:13:31.785Z,34.83
2023-02-11T04:15:58.774Z,32.80
2023-02-11T04:18:25.644Z,30.73
2023-02-11T04:20:52.419Z,27.33
2023-02-11T04:23:21.687Z,30.37
2023-02-11T04:25:52.002Z,30.60
2023-02-11T04:28:19.248Z,30.60
2023-02-11T04:30:46.172Z,32.53
2023-02-11T04:33:13.099Z,36.53
2023-02-11T04:35:40.313Z,29.43
2023-02-11T04:38:07.199Z,38.50
2023-02-11T04:40:34.290Z,38.63
2023-02-11T04:43:01.330Z,33.87
2023-02-11T04:45:28.152Z,32.87
2023-02-11T04:47:55.133Z,31.90
2023-02-11T04:50:25.084Z,34.30
2023-02-11T04:52:52.161Z,34.73
2023-02-11T04:55:19.354Z,33.47
2023-02-11T04:57:46.291Z,41.67
2023-02-11T05:00:13.784Z,34.07
2023-02-11T05:02:40.589Z,32.33
2023-02-11T05:05:07.777Z,34.70
2023-02-11T05:07:34.911Z,31.20
2023-02-11T05:10:01.663Z,37.10
2023-02-11T05:12:28.628Z,34.90
2023-02-11T05:14:55.717Z,35.83
2023-02-11T05:17:22.647Z,32.00
2023-02-11T05:19:49.684Z,34.70
2023-02-11T05:22:16.629Z,38.33
2023-02-11T05:24:44.667Z,38.57
2023-02-11T05:27:11.697Z,31.07
2023-02-11T05:29:38.791Z,35.27
2023-02-11T05:32:05.860Z,37.77
2023-02-11T05:34:32.989Z,37.43
2023-02-11T05:36:59.769Z,37.27
2023-02-11T05:39:26.805Z,41.10
2023-02-11T05:41:53.591Z,39.67
2023-02-11T05:44:20.593Z,36.00
2023-02-11T05:46:47.544Z,33.30
2023-02-11T05:49:14.448Z,30.40
2023-02-11T05:51:41.370Z,36.07
2023-02-11T05:54:08.392Z,26.27
2023-02-11T05:56:35.376Z,32.20
2023-02-11T05:59:02.427Z,30.20
2023-02-11T06:01:29.611Z,33.20
2023-02-11T06:03:56.619Z,34.40
2023-02-11T06:06:23.423Z,35.73
2023-02-11T06:08:50.462Z,32.13
2023-02-11T06:11:17.866Z,29.97
2023-02-11T06:13:44.709Z,32.73
2023-02-11T06:16:11.700Z,28.43
2023-02-11T06:18:38.928Z,30.23
2023-02-11T06:21:11.324Z,34.43
2023-02-11T06:23:38.738Z,33.80
2023-02-11T06:26:07.616Z,31.33
2023-02-11T06:28:36.129Z,27.93
2023-02-11T06:31:08.354Z,35.37
2023-02-11T06:33:35.917Z,33.47
2023-02-11T06:36:03.784Z,38.43
2023-02-11T06:38:30.868Z,31.13
2023-02-11T06:40:57.648Z,36.20
2023-02-11T06:43:24.648Z,37.53
2023-02-11T06:45:55.896Z,35.63
2023-02-11T06:48:23.681Z,33.53
2023-02-11T06:50:50.599Z,33.30
2023-02-11T06:53:17.312Z,32.00
2023-02-11T06:55:44.138Z,42.97
2023-02-11T06:58:11.032Z,30.63
2023-02-11T07:00:38.361Z,38.67
2023-02-11T07:03:05.522Z,33.97
2023-02-11T07:05:34.496Z,39.67
2023-02-11T07:08:01.501Z,36.27
2023-02-11T07:10:28.561Z,33.90
2023-02-11T07:12:58.375Z,45.83
2023-02-11T07:15:25.915Z,36.57
2023-02-11T07:17:52.718Z,35.40
2023-02-11T07:20:19.692Z,32.53
2023-02-11T07:22:46.782Z,34.97
2023-02-11T07:25:13.644Z,38.80
2023-02-11T07:27:40.682Z,38.77
2023-02-11T07:30:08.054Z,36.20
2023-02-11T07:32:35.361Z,45.30
2023-02-11T07:35:02.237Z,40.90
2023-02-11T07:37:29.190Z,43.03
2023-02-11T07:39:59.127Z,39.43
2023-02-11T07:42:26.176Z,39.80
2023-02-11T07:44:53.048Z,40.30
2023-02-11T07:47:19.980Z,40.63
2023-02-11T07:49:47.917Z,43.13
2023-02-11T07:52:14.918Z,41.07
2023-02-11T07:54:41.886Z,40.70
2023-02-11T07:57:09.457Z,47.43
2023-02-11T07:59:36.384Z,43.70
2023-02-11T08:02:06.634Z,41.47
2023-02-11T08:04:33.734Z,44.23
2023-02-11T08:07:00.657Z,43.07
2023-02-11T08:09:27.694Z,41.00
2023-02-11T08:11:54.689Z,45.00
2023-02-11T08:14:21.738Z,48.83
2023-02-11T08:16:48.671Z,36.90
2023-02-11T08:19:17.060Z,48.23
2023-02-11T08:21:44.652Z,42.27
2023-02-11T08:24:14.634Z,34.53
2023-02-11T08:26:41.939Z,34.60
2023-02-11T08:29:11.877Z,34.77
2023-02-11T08:31:42.740Z,35.80
2023-02-11T08:34:11.718Z,40.47
2023-02-11T08:36:40.625Z,37.70
2023-02-11T08:39:19.355Z,41.13
2023-02-11T08:41:49.817Z,31.90
2023-02-11T08:44:18.105Z,29.50
2023-02-11T08:46:45.962Z,39.43
2023-02-11T08:49:12.902Z,34.03
2023-02-11T08:51:40.223Z,35.33
2023-02-11T08:54:10.341Z,33.20
2023-02-11T08:56:38.988Z,34.77
2023-02-11T08:59:07.442Z,36.27
2023-02-11T09:01:36.164Z,35.20
2023-02-11T09:04:03.267Z,32.77
2023-02-11T09:06:32.804Z,34.10
2023-02-11T09:09:00.334Z,34.67
2023-02-11T09:11:33.064Z,34.57
2023-02-11T09:14:00.505Z,34.07
2023-02-11T09:16:33.058Z,36.23
2023-02-11T09:19:02.249Z,30.80
2023-02-11T09:21:29.988Z,35.83
2023-02-11T09:23:57.343Z,38.33
2023-02-11T09:26:32.621Z,26.73
2023-02-11T09:29:00.413Z,30.90
2023-02-11T09:31:29.855Z,28.20
2023-02-11T09:34:00.482Z,33.30
2023-02-11T09:36:29.974Z,27.23
2023-02-11T09:39:02.052Z,33.97
2023-02-11T09:41:56.246Z,36.70
2023-02-11T09:44:29.780Z,31.40
2023-02-11T09:47:00.888Z,22.17
2023-02-11T09:49:45.047Z,24.70
2023-02-11T09:52:39.984Z,27.53
2023-02-11T09:55:19.103Z,26.63
2023-02-11T09:57:46.221Z,27.13
2023-02-11T10:00:24.338Z,22.87
2023-02-11T10:03:11.848Z,32.83
2023-02-11T10:05:38.644Z,28.30
2023-02-11T10:08:29.410Z,23.97
2023-02-11T10:11:32.490Z,27.40
2023-02-11T10:14:24.647Z,25.60
2023-02-11T10:17:15.921Z,25.33
2023-02-11T10:20:00.154Z,24.80
2023-02-11T10:22:40.845Z,26.73
2023-02-11T10:25:27.016Z,29.47
2023-02-11T10:27:58.322Z,21.00
2023-02-11T10:30:36.841Z,24.90
2023-02-11T10:33:13.186Z,23.10
2023-02-11T10:35:40.593Z,23.27
2023-02-11T10:38:09.313Z,23.63
2023-02-11T10:40:36.375Z,31.10
2023-02-11T10:43:06.583Z,22.33
2023-02-11T10:45:38.265Z,22.00
2023-02-11T10:48:07.190Z,26.83
2023-02-11T10:50:38.507Z,17.97
2023-02-11T10:53:24.642Z,27.63
2023-02-11T10:55:58.560Z,26.00
2023-02-11T10:58:40.617Z,20.70
2023-02-11T11:01:23.405Z,23.00
2023-02-11T11:03:52.887Z,27.50
2023-02-11T11:06:31.872Z,18.13
2023-02-11T11:08:59.329Z,19.00
2023-02-11T11:11:27.212Z,19.90
2023-02-11T11:13:56.562Z,15.03
2023-02-11T11:16:29.480Z,12.97
2023-02-11T11:19:08.667Z,22.57
2023-02-11T11:21:48.024Z,16.00
2023-02-11T11:24:30.639Z,19.40
2023-02-11T11:27:03.774Z,17.87
2023-02-11T11:29:51.757Z,21.27
2023-02-11T11:32:29.405Z,15.87
2023-02-11T11:35:01.044Z,16.83
2023-02-11T11:37:31.175Z,17.47
2023-02-11T11:40:01.215Z,16.27
2023-02-11T11:42:39.442Z,13.00
2023-02-11T11:45:23.230Z,22.93
2023-02-11T11:47:58.694Z,20.03
2023-02-11T11:50:40.231Z,17.33
2023-02-11T11:53:26.753Z,15.77
2023-02-11T11:56:07.856Z,17.73
2023-02-11T11:58:35.482Z,18.27
2023-02-11T12:01:17.596Z,14.87
2023-02-11T12:03:47.513Z,12.20
2023-02-11T12:06:23.414Z,19.53
2023-02-11T12:09:02.215Z,18.53
2023-02-11T12:12:06.406Z,21.07
2023-02-11T12:14:39.363Z,10.97
2023-02-11T12:17:35.964Z,17.07
2023-02-11T12:20:24.130Z,15.93
2023-02-11T12:23:09.588Z,15.57
2023-02-11T12:25:47.728Z,15.13
2023-02-11T12:28:17.348Z,15.37
2023-02-11T12:31:04.869Z,13.80
2023-02-11T12:33:44.958Z,13.40
2023-02-11T12:36:34.978Z,13.77
2023-02-11T12:39:19.449Z,18.20
2023-02-11T12:42:10.867Z,10.63
2023-02-11T12:45:09.109Z,7.73
2023-02-11T12:48:02.611Z,15.43
2023-02-11T12:50:53.110Z,19.83
2023-02-11T12:53:57.389Z,17.57
2023-02-11T12:56:53.294Z,17.93
2023-02-11T12:59:32.583Z,15.77
2023-02-11T13:02:05.000Z,18.63
2023-02-11T13:04:43.518Z,18.03
2023-02-11T13:07:17.194Z,22.70
2023-02-11T13:10:13.468Z,16.97
2023-02-11T13:13:04.128Z,25.77
2023-02-11T13:15:32.263Z,23.60
2023-02-11T13:18:31.067Z,25.83
2023-02-11T13:21:16.666Z,24.13
2023-02-11T13:24:08.270Z,19.73
2023-02-11T13:26:50.360Z,26.23
2023-02-11T13:29:29.497Z,22.83
2023-02-11T13:32:06.672Z,25.50
2023-02-11T13:34:43.015Z,25.63
2023-02-11T13:37:27.153Z,22.60
2023-02-11T13:40:17.374Z,21.17
2023-02-11T13:42:56.947Z,26.90
2023-02-11T13:45:45.312Z,26.63
2023-02-11T13:48:24.300Z,24.63
2023-02-11T13:50:58.088Z,22.23
2023-02-11T13:53:25.807Z,24.07
2023-02-11T13:56:14.914Z,22.20
2023-02-11T13:58:50.507Z,25.87
2023-02-11T14:01:38.988Z,25.37
2023-02-11T14:04:45.498Z,22.93
2023-02-11T14:07:47.456Z,19.83
2023-02-11T14:10:39.368Z,20.53
2023-02-11T14:13:33.703Z,21.73
2023-02-11T14:16:13.965Z,17.97
2023-02-11T14:18:49.972Z,23.63
2023-02-11T14:21:32.602Z,17.77
2023-02-11T14:24:02.486Z,20.50
2023-02-11T14:26:45.672Z,23.40
2023-02-11T14:29:45.334Z,24.83
2023-02-11T14:32:45.943Z,23.00
2023-02-11T14:35:22.835Z,22.10
2023-02-11T14:37:52.679Z,29.83
2023-02-11T14:40:26.044Z,19.17
2023-02-11T14:42:55.502Z,20.63
2023-02-11T14:45:29.062Z,18.70
2023-02-11T14:48:05.919Z,13.93
2023-02-11T14:50:41.361Z,15.60
2023-02-11T14:53:17.821Z,13.23
2023-02-11T14:55:52.808Z,11.80
2023-02-11T14:58:22.973Z,16.37
2023-02-11T15:01:32.713Z,14.13
2023-02-11T15:04:01.446Z,20.43
2023-02-11T15:06:43.067Z,19.50
2023-02-11T15:09:34.284Z,15.97
2023-02-11T15:12:01.789Z,22.20
2023-02-11T15:14:35.779Z,21.57
2023-02-11T15:17:06.371Z,23.43
2023-02-11T15:19:41.460Z,23.83
2023-02-11T15:22:22.274Z,24.27
2023-02-11T15:25:08.656Z,23.57
2023-02-11T15:27:42.008Z,36.57
2023-02-11T15:30:28.384Z,28.33
2023-02-11T15:33:07.859Z,25.77
2023-02-11T15:35:41.235Z,24.67
2023-02-11T15:38:14.478Z,20.17
2023-02-11T15:40:51.133Z,20.60
2023-02-11T15:43:18.304Z,21.27
2023-02-11T15:45:53.487Z,19.63
2023-02-11T15:48:29.185Z,22.57
2023-02-11T15:51:02.417Z,22.40
2023-02-11T15:53:33.831Z,25.77
2023-02-11T15:56:33.264Z,28.80
2023-02-11T15:59:19.786Z,22.53
2023-02-11T16:01:48.194Z,23.70
2023-02-11T16:04:25.007Z,26.27
2023-02-11T16:06:53.656Z,34.97
2023-02-11T16:09:23.442Z,31.07
2023-02-11T16:11:50.256Z,30.07
2023-02-11T16:14:35.176Z,30.20
2023-02-11T16:17:12.427Z,31.10
2023-02-11T16:19:51.484Z,30.07
2023-02-11T16:22:35.634Z,34.83
2023-02-11T16:25:02.806Z,34.40
2023-02-11T16:27:40.813Z,21.93
2023-02-11T16:30:24.365Z,31.37
2023-02-11T16:32:53.518Z,34.10
2023-02-11T16:35:20.965Z,31.23
2023-02-11T16:37:48.030Z,29.97
2023-02-11T16:40:15.206Z,35.70
2023-02-11T16:42:42.399Z,30.13
2023-02-11T16:45:09.831Z,37.73
2023-02-11T16:47:41.133Z,37.10
2023-02-11T16:50:19.724Z,37.07
2023-02-11T16:52:47.448Z,35.73
2023-02-11T16:55:15.262Z,27.03
2023-02-11T16:57:42.335Z,37.97
2023-02-11T17:00:10.579Z,46.03
2023-02-11T17:02:39.903Z,34.13
2023-02-11T17:05:15.669Z,33.13
2023-02-11T17:07:42.574Z,29.47
2023-02-11T17:10:23.572Z,25.97
2023-02-11T17:12:51.533Z,36.53
2023-02-11T17:15:18.446Z,22.30
2023-02-11T17:17:46.054Z,32.67
2023-02-11T17:20:14.816Z,30.97
2023-02-11T17:22:41.931Z,22.37
2023-02-11T17:25:09.167Z,19.80
2023-02-11T17:27:38.969Z,29.70
2023-02-11T17:30:06.570Z,25.20
2023-02-11T17:32:33.879Z,21.00
2023-02-11T17:35:00.864Z,22.27
2023-02-11T17:37:28.898Z,22.90
2023-02-11T17:39:55.884Z,17.00
2023-02-11T17:42:22.805Z,22.27
2023-02-11T17:44:49.733Z,30.37
2023-02-11T17:47:16.463Z,24.73
2023-02-11T17:49:43.260Z,25.57
2023-02-11T17:52:10.353Z,21.10
2023-02-11T17:54:38.377Z,32.63
2023-02-11T17:57:05.407Z,28.60
2023-02-11T17:59:35.634Z,25.87
2023-02-11T18:02:04.420Z,29.27
2023-02-11T18:04:34.640Z,28.63
2023-02-11T18:07:01.795Z,36.93
2023-02-11T18:09:28.859Z,26.70
2023-02-11T18:11:55.738Z,34.27
2023-02-11T18:14:23.023Z,30.57
2023-02-11T18:16:52.080Z,29.70
2023-02-11T18:19:19.850Z,33.63
2023-02-11T18:21:49.133Z,31.20
2023-02-11T18:24:17.055Z,33.97
2023-02-11T18:26:44.358Z,39.60
2023-02-11T18:29:11.228Z,36.47
2023-02-11T18:31:38.785Z,39.07
2023-02-11T18:34:10.826Z,45.17
2023-02-11T18:36:37.949Z,45.37
2023-02-11T18:39:06.024Z,35.23
2023-02-11T18:41:33.428Z,41.87
2023-02-11T18:44:03.398Z,37.97
2023-02-11T18:46:31.503Z,35.80
2023-02-11T18:48:58.640Z,38.40
2023-02-11T18:51:26.918Z,34.10
2023-02-11T18:53:54.839Z,41.83
2023-02-11T18:56:24.759Z,44.43
2023-02-11T18:58:52.311Z,37.00
2023-02-11T19:01:26.089Z,40.43
2023-02-11T19:03:54.015Z,48.20
2023-02-11T19:06:27.110Z,38.33
2023-02-11T19:08:58.269Z,49.90
2023-02-11T19:11:45.491Z,38.20
2023-02-11T19:14:12.404Z,43.40
2023-02-11T19:16:41.244Z,48.27
2023-02-11T19:19:08.844Z,42.83
2023-02-11T19:21:36.593Z,37.83
2023-02-11T19:24:10.571Z,37.20
2023-02-11T19:26:38.060Z,38.30
2023-02-11T19:29:06.358Z,40.70
2023-02-11T19:31:33.748Z,49.03
2023-02-11T19:34:01.453Z,41.33
2023-02-11T19:36:29.139Z,37.07
2023-02-11T19:38:56.137Z,33.97
2023-02-11T19:41:23.634Z,41.13
2023-02-11T19:43:53.814Z,40.07
2023-02-11T19:46:22.183Z,35.97
2023-02-11T19:48:49.440Z,33.53
2023-02-11T19:51:17.997Z,38.90
2023-02-11T19:53:45.781Z,42.73
2023-02-11T19:56:14.488Z,49.10
2023-02-11T19:58:42.410Z,46.90
2023-02-11T20:01:18.612Z,43.33
2023-02-11T20:03:50.195Z,45.40
2023-02-11T20:06:20.485Z,49.93
2023-02-11T20:08:47.531Z,53.13
2023-02-11T20:11:17.158Z,46.33
2023-02-11T20:13:44.510Z,45.10
2023-02-11T20:16:14.379Z,48.50
2023-02-11T20:18:41.394Z,47.67
2023-02-11T20:21:13.428Z,49.30
2023-02-11T20:23:41.094Z,48.23
2023-02-11T20:26:10.894Z,43.27
2023-02-11T20:28:38.188Z,36.00
2023-02-11T20:31:06.328Z,30.57
2023-02-11T20:33:37.346Z,42.13
2023-02-11T20:36:10.662Z,34.33
2023-02-11T20:38:37.763Z,33.80
2023-02-11T20:41:13.981Z,35.83
2023-02-11T20:43:42.298Z,36.17
2023-02-11T20:46:09.366Z,37.30
2023-02-11T20:48:40.743Z,30.70
2023-02-11T20:51:10.848Z,30.83
2023-02-11T20:53:39.882Z,28.67
2023-02-11T20:56:08.719Z,31.97
2023-02-11T20:58:36.481Z,26.10
2023-02-11T21:01:17.012Z,25.90
2023-02-11T21:03:46.997Z,24.13
2023-02-11T21:06:14.145Z,30.13
2023-02-11T21:08:41.254Z,28.40
2023-02-11T21:11:09.614Z,28.43
2023-02-11T21:13:37.316Z,28.23
2023-02-11T21:16:05.075Z,24.97
2023-02-11T21:18:32.903Z,22.17
2023-02-11T21:20:59.873Z,28.33
2023-02-11T21:23:27.281Z,22.50
2023-02-11T21:25:54.684Z,25.83
2023-02-11T21:28:26.446Z,24.77
2023-02-11T21:30:55.183Z,22.73
2023-02-11T21:33:22.935Z,24.20
2023-02-11T21:35:50.576Z,26.57
2023-02-11T21:38:17.791Z,20.67
2023-02-11T21:40:44.796Z,21.77
2023-02-11T21:43:11.648Z,23.47
2023-02-11T21:45:49.914Z,19.47
2023-02-11T21:48:18.297Z,24.63
2023-02-11T21:50:47.288Z,17.70
2023-02-11T21:53:14.896Z,22.77
2023-02-11T21:55:42.375Z,23.30
2023-02-11T21:58:13.074Z,24.60
2023-02-11T22:00:40.583Z,28.37
2023-02-11T22:03:07.735Z,21.57
2023-02-11T22:05:34.768Z,20.97
2023-02-11T22:08:02.049Z,26.90
2023-02-11T22:10:28.927Z,21.43
2023-02-11T22:12:55.898Z,17.13
2023-02-11T22:15:23.946Z,24.70
2023-02-11T22:17:50.920Z,19.97
2023-02-11T22:20:17.896Z,20.40
2023-02-11T22:22:44.832Z,20.60
2023-02-11T22:25:11.558Z,20.37
2023-02-11T22:27:38.410Z,19.27
2023-02-11T22:30:05.857Z,20.23
2023-02-11T22:32:32.937Z,25.30
2023-02-11T22:34:59.977Z,18.90
2023-02-11T22:37:26.716Z,16.53
2023-02-11T22:39:53.685Z,20.57
2023-02-11T22:42:20.676Z,18.20
2023-02-11T22:44:47.548Z,18.90
2023-02-11T22:47:14.447Z,22.20
2023-02-11T22:49:41.661Z,21.23
2023-02-11T22:52:08.641Z,15.57
2023-02-11T22:54:36.587Z,13.90
2023-02-11T22:57:03.584Z,14.13
2023-02-11T22:59:30.387Z,15.63
2023-02-11T23:01:57.543Z,11.13
2023-02-11T23:04:25.216Z,13.17
2023-02-11T23:06:52.113Z,12.50
2023-02-11T23:09:19.173Z,12.10
2023-02-11T23:11:47.154Z,10.43
2023-02-11T23:14:13.941Z,11.50
2023-02-11T23:16:41.015Z,10.23
2023-02-11T23:19:09.158Z,12.63
2023-02-11T23:21:38.102Z,11.47
2023-02-11T23:24:11.990Z,11.73
2023-02-11T23:26:40.983Z,10.97
2023-02-11T23:29:11.027Z,13.70
2023-02-11T23:31:40.642Z,8.73
2023-02-11T23:34:08.548Z,11.60
2023-02-11T23:36:36.321Z,8.27
2023-02-11T23:39:03.942Z,12.80
2023-02-11T23:41:30.953Z,6.27
2023-02-11T23:43:58.443Z,11.10
2023-02-11T23:46:28.435Z,13.23
2023-02-11T23:48:56.120Z,10.93
2023-02-11T23:51:23.777Z,9.63
2023-02-11T23:53:51.645Z,12.50
2023-02-11T23:56:24.025Z,10.27
2023-02-11T23:58:52.980Z,12.23
